EmailTwitter


Surface observations / France / LFBO (07630)

Regions: Quebec | Canada | USA | Europe | France | UK | Elsewhere
Station
Display
Info & Location for LFBO (07630) | Help decoding METAR

Weather Conditions observed on 2017/06/24 at 12:00 UTC at TOULOUSE/BLAGNAC, FR (LFBO)

Sky conditions: overcast.

Temperature: 25.0 Celsius.

Dewpoint: 14.0 Celsius.

Relative Humidity: 50%

Humidex: 28.

Winds: Northwest at 15 km/h or 8 knots.

Mean Sea level Pressure: 102.10 kilopascals.

Horizontal visibility: 6.21 statute miles or 9.94 kilometers.

Height of the Ceiling: 1250 metres ( 4100 feet ).

Coded METAR:

LFBO 241200Z AUTO 31008KT 290V350 9999 SCT034 OVC041 25/14 Q1021 NOSIG=